createdAt,value
2018-09-15T12:04:17.000Z,57
2018-09-15T12:05:17.000Z,55
2018-09-15T12:06:17.000Z,57
2018-09-15T12:07:17.000Z,60
2018-09-15T12:08:17.000Z,58
2018-09-15T12:09:18.000Z,58
2018-09-15T12:10:17.000Z,60
2018-09-15T12:11:17.000Z,59
2018-09-15T12:12:16.000Z,59
2018-09-15T12:13:17.000Z,61
2018-09-15T12:14:17.000Z,59
2018-09-15T12:15:17.000Z,64
2018-09-15T12:16:17.000Z,67
2018-09-15T12:17:17.000Z,67
2018-09-15T12:18:17.000Z,66
2018-09-15T12:19:17.000Z,68
2018-09-15T12:20:17.000Z,69
2018-09-15T12:22:16.000Z,68
2018-09-15T12:23:17.000Z,68
2018-09-15T12:24:16.000Z,68
2018-09-15T12:25:17.000Z,70
2018-09-15T12:26:17.000Z,64
2018-09-15T12:27:17.000Z,69
2018-09-15T12:28:17.000Z,67
2018-09-15T12:29:17.000Z,69
2018-09-15T12:30:17.000Z,71
2018-09-15T12:31:17.000Z,74
2018-09-15T12:32:17.000Z,71
2018-09-15T12:33:17.000Z,67
2018-09-15T12:34:17.000Z,66
2018-09-15T12:35:17.000Z,70
2018-09-15T12:36:17.000Z,70
2018-09-15T12:37:17.000Z,70
2018-09-15T12:38:17.000Z,70
2018-09-15T12:39:18.000Z,69
2018-09-15T12:40:17.000Z,73
2018-09-15T12:41:17.000Z,71
2018-09-15T12:42:17.000Z,71
2018-09-15T12:43:17.000Z,63
2018-09-15T12:44:17.000Z,64
2018-09-15T12:45:18.000Z,65
2018-09-15T12:46:17.000Z,66
2018-09-15T12:47:17.000Z,66
2018-09-15T12:48:16.000Z,60
2018-09-15T12:49:17.000Z,61
2018-09-15T12:50:17.000Z,64
2018-09-15T12:51:17.000Z,66
2018-09-15T12:52:17.000Z,66
2018-09-15T12:53:17.000Z,66
2018-09-15T12:54:17.000Z,66
2018-09-15T12:55:16.000Z,62
2018-09-15T12:56:16.000Z,65
2018-09-15T12:57:17.000Z,68
2018-09-15T12:58:17.000Z,69
2018-09-15T12:59:17.000Z,67
2018-09-15T13:00:17.000Z,69
2018-09-15T13:01:17.000Z,67
2018-09-15T13:02:17.000Z,71
2018-09-15T13:03:17.000Z,72
2018-09-15T13:04:17.000Z,69
2018-09-15T13:05:17.000Z,71
2018-09-15T13:06:16.000Z,69
2018-09-15T13:07:17.000Z,66
2018-09-15T13:08:17.000Z,68
2018-09-15T13:09:17.000Z,64
2018-09-15T13:10:17.000Z,66
2018-09-15T13:11:17.000Z,64
2018-09-15T13:12:16.000Z,61
2018-09-15T13:13:17.000Z,62
2018-09-15T13:14:16.000Z,59
2018-09-15T13:15:16.000Z,58
2018-09-15T13:16:17.000Z,56
2018-09-15T13:17:16.000Z,57
2018-09-15T13:18:17.000Z,57
2018-09-15T13:19:17.000Z,57
2018-09-15T13:20:17.000Z,56
2018-09-15T13:21:17.000Z,56
2018-09-15T13:22:17.000Z,57
2018-09-15T13:23:17.000Z,56
2018-09-15T13:24:18.000Z,55
2018-09-15T13:25:17.000Z,55
2018-09-15T13:26:16.000Z,58
2018-09-15T13:27:17.000Z,58
2018-09-15T13:28:17.000Z,56
2018-09-15T13:29:17.000Z,55
2018-09-15T13:30:17.000Z,56
2018-09-15T13:31:17.000Z,60
2018-09-15T13:32:17.000Z,62
2018-09-15T13:33:16.000Z,58
2018-09-15T13:34:17.000Z,55
2018-09-15T13:35:17.000Z,56
2018-09-15T13:36:17.000Z,57
2018-09-15T13:37:17.000Z,58
2018-09-15T13:38:17.000Z,60
2018-09-15T13:39:18.000Z,60
2018-09-15T13:40:17.000Z,61
2018-09-15T13:41:17.000Z,56
2018-09-15T13:42:16.000Z,55
2018-09-15T13:43:17.000Z,54
2018-09-15T13:44:17.000Z,56
2018-09-15T13:45:17.000Z,55
2018-09-15T13:46:17.000Z,55
2018-09-15T13:47:17.000Z,51
2018-09-15T13:48:17.000Z,51
2018-09-15T13:49:17.000Z,52
2018-09-15T13:50:17.000Z,52
2018-09-15T13:51:16.000Z,49
2018-09-15T13:52:17.000Z,50
2018-09-15T13:53:17.000Z,53
2018-09-15T13:54:17.000Z,52
2018-09-15T13:55:17.000Z,53
2018-09-15T13:56:17.000Z,54
2018-09-15T13:57:17.000Z,55
2018-09-15T13:58:17.000Z,57
2018-09-15T13:59:17.000Z,59
2018-09-15T14:00:17.000Z,58
2018-09-15T14:01:16.000Z,58
2018-09-15T14:02:17.000Z,57
2018-09-15T14:03:16.000Z,57
2018-09-15T14:04:17.000Z,55
2018-09-15T14:05:17.000Z,56
2018-09-15T14:06:17.000Z,55
2018-09-15T14:07:17.000Z,54
2018-09-15T14:08:17.000Z,55
2018-09-15T14:09:18.000Z,57
2018-09-15T14:10:17.000Z,56
2018-09-15T14:11:17.000Z,56
2018-09-15T14:12:17.000Z,53
2018-09-15T14:13:17.000Z,55
2018-09-15T14:14:17.000Z,52
2018-09-15T14:15:16.000Z,53
2018-09-15T14:16:17.000Z,52
2018-09-15T14:17:17.000Z,53
2018-09-15T14:18:16.000Z,52
2018-09-15T14:19:17.000Z,51
2018-09-15T14:20:17.000Z,52
2018-09-15T14:21:17.000Z,53
2018-09-15T14:22:17.000Z,55
2018-09-15T14:23:16.000Z,53
2018-09-15T14:24:17.000Z,53
2018-09-15T14:25:17.000Z,54
2018-09-15T14:26:17.000Z,54
2018-09-15T14:27:17.000Z,53
2018-09-15T14:28:17.000Z,54
2018-09-15T14:29:17.000Z,54
2018-09-15T14:30:17.000Z,52
2018-09-15T14:31:17.000Z,51
2018-09-15T14:32:17.000Z,52
2018-09-15T14:33:16.000Z,52
2018-09-15T14:34:17.000Z,53
2018-09-15T14:35:17.000Z,53
2018-09-15T14:36:17.000Z,52
2018-09-15T14:37:17.000Z,52
2018-09-15T14:38:17.000Z,52
2018-09-15T14:39:18.000Z,52
2018-09-15T14:40:17.000Z,51
2018-09-15T14:41:17.000Z,52
2018-09-15T14:42:17.000Z,52
2018-09-15T14:43:17.000Z,53
2018-09-15T14:44:16.000Z,52
2018-09-15T14:45:17.000Z,51
2018-09-15T14:46:17.000Z,50
2018-09-15T14:47:17.000Z,50
2018-09-15T14:48:17.000Z,50
2018-09-15T14:49:17.000Z,49
2018-09-15T14:50:17.000Z,49
2018-09-15T14:51:17.000Z,50
2018-09-15T14:52:17.000Z,49
2018-09-15T14:53:17.000Z,50
2018-09-15T14:54:16.000Z,49
2018-09-15T14:55:17.000Z,48
2018-09-15T14:56:17.000Z,48
2018-09-15T14:57:16.000Z,48
2018-09-15T14:58:16.000Z,47
2018-09-15T14:59:17.000Z,47
2018-09-15T15:00:17.000Z,47
2018-09-15T15:01:16.000Z,48
2018-09-15T15:02:17.000Z,47
2018-09-15T15:03:17.000Z,47
2018-09-15T15:04:17.000Z,48
2018-09-15T15:05:17.000Z,47
2018-09-15T15:06:17.000Z,48
2018-09-15T15:07:17.000Z,47
2018-09-15T15:08:16.000Z,48
2018-09-15T15:09:18.000Z,48
2018-09-15T15:10:17.000Z,48
2018-09-15T15:11:17.000Z,48
2018-09-15T15:12:16.000Z,47
2018-09-15T15:13:17.000Z,48
2018-09-15T15:15:17.000Z,47
2018-09-15T15:16:17.000Z,48
2018-09-15T15:17:16.000Z,47
2018-09-15T15:18:16.000Z,48
2018-09-15T15:19:17.000Z,48
2018-09-15T15:20:17.000Z,48
2018-09-15T15:21:16.000Z,47
2018-09-15T15:22:17.000Z,48
2018-09-15T15:23:17.000Z,49
2018-09-15T15:24:17.000Z,49
2018-09-15T15:25:17.000Z,47
2018-09-15T15:26:16.000Z,48
2018-09-15T15:27:17.000Z,51
2018-09-15T15:28:17.000Z,51
2018-09-15T15:29:17.000Z,54
2018-09-15T15:30:17.000Z,53
2018-09-15T15:31:17.000Z,55
2018-09-15T15:32:17.000Z,52
2018-09-15T15:33:17.000Z,51
2018-09-15T15:34:16.000Z,51
2018-09-15T15:35:17.000Z,53
2018-09-15T15:36:17.000Z,51
2018-09-15T15:37:17.000Z,52
2018-09-15T15:38:17.000Z,51
2018-09-15T15:39:18.000Z,51
2018-09-15T15:40:16.000Z,52
2018-09-15T15:41:17.000Z,55
2018-09-15T15:43:17.000Z,56
2018-09-15T15:44:17.000Z,55
2018-09-15T15:45:17.000Z,53
2018-09-15T15:46:17.000Z,54
2018-09-15T15:47:17.000Z,54
2018-09-15T15:48:16.000Z,59
2018-09-15T15:49:17.000Z,57
2018-09-15T15:50:17.000Z,60
2018-09-15T15:51:17.000Z,63
2018-09-15T15:52:17.000Z,64
2018-09-15T15:53:17.000Z,65
2018-09-15T15:54:16.000Z,66
2018-09-15T15:55:17.000Z,65
2018-09-15T15:56:16.000Z,66
2018-09-15T15:57:17.000Z,70
2018-09-15T15:58:17.000Z,64
2018-09-15T15:59:17.000Z,63
2018-09-15T16:00:16.000Z,63
2018-09-15T16:01:16.000Z,61
2018-09-15T16:02:17.000Z,62
2018-09-15T16:03:17.000Z,61
